sensor_id;sensor_type;location;lat;lon;timestamp;P1;durP1;ratioP1;P2;durP2;ratioP2
63818;SDS011;49970;54.976;73.248;2023-05-10T00:01:56;69.18;;;42.92;;
63818;SDS011;49970;54.976;73.248;2023-05-10T00:04:23;68.43;;;42.60;;
63818;SDS011;49970;54.976;73.248;2023-05-10T00:06:53;60.67;;;41.05;;
63818;SDS011;49970;54.976;73.248;2023-05-10T00:09:19;73.00;;;42.92;;
63818;SDS011;49970;54.976;73.248;2023-05-10T00:11:47;76.45;;;41.58;;
63818;SDS011;49970;54.976;73.248;2023-05-10T00:14:13;67.47;;;42.00;;
63818;SDS011;49970;54.976;73.248;2023-05-10T00:16:40;73.63;;;42.47;;
63818;SDS011;49970;54.976;73.248;2023-05-10T00:19:06;62.80;;;41.20;;
63818;SDS011;49970;54.976;73.248;2023-05-10T00:21:32;66.90;;;41.88;;
63818;SDS011;49970;54.976;73.248;2023-05-10T00:23:59;67.70;;;41.25;;
63818;SDS011;49970;54.976;73.248;2023-05-10T00:26:26;69.18;;;39.20;;
63818;SDS011;49970;54.976;73.248;2023-05-10T00:28:54;62.10;;;38.53;;
63818;SDS011;49970;54.976;73.248;2023-05-10T00:31:21;59.90;;;37.65;;
63818;SDS011;49970;54.976;73.248;2023-05-10T00:33:47;70.25;;;39.45;;
63818;SDS011;49970;54.976;73.248;2023-05-10T00:36:13;68.07;;;38.22;;
63818;SDS011;49970;54.976;73.248;2023-05-10T00:38:40;64.88;;;39.05;;
63818;SDS011;49970;54.976;73.248;2023-05-10T00:41:06;57.28;;;39.03;;
63818;SDS011;49970;54.976;73.248;2023-05-10T00:43:35;59.47;;;38.20;;
63818;SDS011;49970;54.976;73.248;2023-05-10T00:46:03;68.40;;;38.40;;
63818;SDS011;49970;54.976;73.248;2023-05-10T00:48:30;66.15;;;37.70;;
63818;SDS011;49970;54.976;73.248;2023-05-10T00:50:57;62.90;;;38.30;;
63818;SDS011;49970;54.976;73.248;2023-05-10T00:53:23;59.50;;;38.28;;
63818;SDS011;49970;54.976;73.248;2023-05-10T00:55:50;69.95;;;40.35;;
63818;SDS011;49970;54.976;73.248;2023-05-10T00:58:16;76.15;;;39.33;;
63818;SDS011;49970;54.976;73.248;2023-05-10T01:00:43;58.33;;;38.55;;
63818;SDS011;49970;54.976;73.248;2023-05-10T01:03:12;66.13;;;39.53;;
63818;SDS011;49970;54.976;73.248;2023-05-10T01:05:38;71.78;;;41.28;;
63818;SDS011;49970;54.976;73.248;2023-05-10T01:08:05;84.13;;;40.97;;
63818;SDS011;49970;54.976;73.248;2023-05-10T01:10:32;70.20;;;39.00;;
63818;SDS011;49970;54.976;73.248;2023-05-10T01:12:58;68.93;;;40.90;;
63818;SDS011;49970;54.976;73.248;2023-05-10T01:15:25;65.63;;;39.00;;
63818;SDS011;49970;54.976;73.248;2023-05-10T01:17:52;64.38;;;39.83;;
63818;SDS011;49970;54.976;73.248;2023-05-10T01:20:19;75.97;;;37.47;;
63818;SDS011;49970;54.976;73.248;2023-05-10T01:23:10;60.20;;;37.75;;
63818;SDS011;49970;54.976;73.248;2023-05-10T01:26:02;61.15;;;34.95;;
63818;SDS011;49970;54.976;73.248;2023-05-10T01:31:21;63.30;;;33.45;;
63818;SDS011;49970;54.976;73.248;2023-05-10T01:34:02;55.53;;;34.28;;
63818;SDS011;49970;54.976;73.248;2023-05-10T01:36:39;59.10;;;32.63;;
63818;SDS011;49970;54.976;73.248;2023-05-10T01:44:31;55.28;;;32.95;;
63818;SDS011;49970;54.976;73.248;2023-05-10T01:47:14;55.00;;;30.42;;
63818;SDS011;49970;54.976;73.248;2023-05-10T01:49:52;57.88;;;30.27;;
63818;SDS011;49970;54.976;73.248;2023-05-10T01:52:30;68.10;;;29.33;;
63818;SDS011;49970;54.976;73.248;2023-05-10T01:55:01;48.50;;;28.17;;
63818;SDS011;49970;54.976;73.248;2023-05-10T01:57:32;63.47;;;29.73;;
63818;SDS011;49970;54.976;73.248;2023-05-10T02:00:02;50.15;;;26.67;;
63818;SDS011;49970;54.976;73.248;2023-05-10T02:02:40;49.88;;;25.65;;
63818;SDS011;49970;54.976;73.248;2023-05-10T02:05:11;45.53;;;24.40;;
63818;SDS011;49970;54.976;73.248;2023-05-10T02:07:40;48.67;;;26.00;;
63818;SDS011;49970;54.976;73.248;2023-05-10T02:10:08;49.88;;;25.95;;
63818;SDS011;49970;54.976;73.248;2023-05-10T02:12:36;54.40;;;24.33;;
63818;SDS011;49970;54.976;73.248;2023-05-10T02:15:06;48.65;;;23.60;;
63818;SDS011;49970;54.976;73.248;2023-05-10T02:17:35;45.13;;;24.33;;
63818;SDS011;49970;54.976;73.248;2023-05-10T02:20:04;40.53;;;23.35;;
63818;SDS011;49970;54.976;73.248;2023-05-10T02:22:33;39.45;;;23.80;;
63818;SDS011;49970;54.976;73.248;2023-05-10T02:25:01;41.00;;;23.83;;
63818;SDS011;49970;54.976;73.248;2023-05-10T02:27:29;42.20;;;23.48;;
63818;SDS011;49970;54.976;73.248;2023-05-10T02:29:56;48.28;;;24.73;;
63818;SDS011;49970;54.976;73.248;2023-05-10T02:32:24;44.22;;;25.35;;
63818;SDS011;49970;54.976;73.248;2023-05-10T02:34:52;45.50;;;24.77;;
63818;SDS011;49970;54.976;73.248;2023-05-10T02:37:20;60.83;;;25.15;;
63818;SDS011;49970;54.976;73.248;2023-05-10T02:39:48;46.78;;;24.92;;
63818;SDS011;49970;54.976;73.248;2023-05-10T02:42:17;49.95;;;25.88;;
63818;SDS011;49970;54.976;73.248;2023-05-10T02:44:45;42.45;;;25.80;;
63818;SDS011;49970;54.976;73.248;2023-05-10T02:47:15;60.85;;;27.50;;
63818;SDS011;49970;54.976;73.248;2023-05-10T02:49:43;69.00;;;28.27;;
63818;SDS011;49970;54.976;73.248;2023-05-10T02:52:39;55.92;;;28.75;;
63818;SDS011;49970;54.976;73.248;2023-05-10T02:55:09;66.53;;;29.17;;
63818;SDS011;49970;54.976;73.248;2023-05-10T02:58:15;63.75;;;29.02;;
63818;SDS011;49970;54.976;73.248;2023-05-10T03:00:41;57.78;;;27.38;;
63818;SDS011;49970;54.976;73.248;2023-05-10T03:03:07;49.92;;;28.48;;
63818;SDS011;49970;54.976;73.248;2023-05-10T03:05:33;57.72;;;30.10;;
63818;SDS011;49970;54.976;73.248;2023-05-10T03:08:02;78.53;;;31.15;;
63818;SDS011;49970;54.976;73.248;2023-05-10T03:10:31;53.80;;;31.02;;
63818;SDS011;49970;54.976;73.248;2023-05-10T03:18:29;67.38;;;31.30;;
63818;SDS011;49970;54.976;73.248;2023-05-10T03:21:04;51.35;;;27.10;;
63818;SDS011;49970;54.976;73.248;2023-05-10T03:23:35;59.15;;;29.10;;
63818;SDS011;49970;54.976;73.248;2023-05-10T03:26:07;48.35;;;29.58;;
63818;SDS011;49970;54.976;73.248;2023-05-10T03:28:35;50.85;;;28.58;;
63818;SDS011;49970;54.976;73.248;2023-05-10T03:31:04;61.70;;;28.73;;
63818;SDS011;49970;54.976;73.248;2023-05-10T03:33:32;53.05;;;28.15;;
63818;SDS011;49970;54.976;73.248;2023-05-10T03:35:59;40.05;;;26.58;;
63818;SDS011;49970;54.976;73.248;2023-05-10T03:38:26;43.92;;;29.80;;
63818;SDS011;49970;54.976;73.248;2023-05-10T03:40:52;39.55;;;27.52;;
63818;SDS011;49970;54.976;73.248;2023-05-10T03:43:18;69.90;;;28.38;;
63818;SDS011;49970;54.976;73.248;2023-05-10T03:45:45;50.92;;;32.67;;
63818;SDS011;49970;54.976;73.248;2023-05-10T03:48:11;60.70;;;30.60;;
63818;SDS011;49970;54.976;73.248;2023-05-10T03:50:40;51.47;;;29.58;;
63818;SDS011;49970;54.976;73.248;2023-05-10T03:53:07;80.22;;;33.70;;
63818;SDS011;49970;54.976;73.248;2023-05-10T03:55:33;74.68;;;32.78;;
63818;SDS011;49970;54.976;73.248;2023-05-10T03:58:02;92.13;;;32.50;;
63818;SDS011;49970;54.976;73.248;2023-05-10T04:00:28;69.55;;;29.58;;
63818;SDS011;49970;54.976;73.248;2023-05-10T04:02:55;76.15;;;27.67;;
63818;SDS011;49970;54.976;73.248;2023-05-10T04:05:22;64.18;;;30.67;;
63818;SDS011;49970;54.976;73.248;2023-05-10T04:07:51;83.65;;;30.10;;
63818;SDS011;49970;54.976;73.248;2023-05-10T04:10:18;71.47;;;30.45;;
63818;SDS011;49970;54.976;73.248;2023-05-10T04:12:44;71.88;;;29.67;;
63818;SDS011;49970;54.976;73.248;2023-05-10T04:15:10;66.95;;;25.77;;
63818;SDS011;49970;54.976;73.248;2023-05-10T04:17:36;66.72;;;27.55;;
63818;SDS011;49970;54.976;73.248;2023-05-10T04:20:03;70.03;;;27.88;;
63818;SDS011;49970;54.976;73.248;2023-05-10T04:22:30;81.22;;;27.52;;
63818;SDS011;49970;54.976;73.248;2023-05-10T04:24:57;78.72;;;27.45;;
63818;SDS011;49970;54.976;73.248;2023-05-10T04:27:24;61.67;;;26.02;;
63818;SDS011;49970;54.976;73.248;2023-05-10T04:29:50;59.13;;;29.02;;
63818;SDS011;49970;54.976;73.248;2023-05-10T04:32:16;58.35;;;27.73;;
63818;SDS011;49970;54.976;73.248;2023-05-10T04:34:43;97.30;;;28.70;;
63818;SDS011;49970;54.976;73.248;2023-05-10T04:37:09;65.85;;;27.35;;
63818;SDS011;49970;54.976;73.248;2023-05-10T04:39:35;63.75;;;26.23;;
63818;SDS011;49970;54.976;73.248;2023-05-10T04:42:05;74.18;;;24.77;;
63818;SDS011;49970;54.976;73.248;2023-05-10T04:44:31;82.82;;;26.85;;
63818;SDS011;49970;54.976;73.248;2023-05-10T04:46:58;70.90;;;25.65;;
63818;SDS011;49970;54.976;73.248;2023-05-10T04:49:25;65.32;;;25.13;;
63818;SDS011;49970;54.976;73.248;2023-05-10T04:51:52;68.25;;;24.35;;
63818;SDS011;49970;54.976;73.248;2023-05-10T04:54:18;78.40;;;25.15;;
63818;SDS011;49970;54.976;73.248;2023-05-10T04:56:44;76.25;;;23.95;;
63818;SDS011;49970;54.976;73.248;2023-05-10T04:59:10;74.15;;;22.88;;
63818;SDS011;49970;54.976;73.248;2023-05-10T05:01:37;62.80;;;20.77;;
63818;SDS011;49970;54.976;73.248;2023-05-10T05:04:09;51.67;;;23.00;;
63818;SDS011;49970;54.976;73.248;2023-05-10T05:06:35;61.83;;;24.33;;
63818;SDS011;49970;54.976;73.248;2023-05-10T05:09:02;52.72;;;23.90;;
63818;SDS011;49970;54.976;73.248;2023-05-10T05:11:28;54.13;;;21.75;;
63818;SDS011;49970;54.976;73.248;2023-05-10T05:13:54;48.13;;;21.13;;
63818;SDS011;49970;54.976;73.248;2023-05-10T05:16:20;61.88;;;21.10;;
63818;SDS011;49970;54.976;73.248;2023-05-10T05:18:47;42.95;;;21.65;;
63818;SDS011;49970;54.976;73.248;2023-05-10T05:21:16;48.08;;;21.50;;
63818;SDS011;49970;54.976;73.248;2023-05-10T05:23:43;46.53;;;21.73;;
63818;SDS011;49970;54.976;73.248;2023-05-10T05:26:10;55.22;;;21.83;;
63818;SDS011;49970;54.976;73.248;2023-05-10T05:28:36;53.17;;;22.67;;
63818;SDS011;49970;54.976;73.248;2023-05-10T05:31:04;62.63;;;24.10;;
63818;SDS011;49970;54.976;73.248;2023-05-10T05:33:31;64.28;;;25.65;;
63818;SDS011;49970;54.976;73.248;2023-05-10T05:35:59;67.88;;;24.70;;
63818;SDS011;49970;54.976;73.248;2023-05-10T05:38:27;56.80;;;23.02;;
63818;SDS011;49970;54.976;73.248;2023-05-10T05:40:53;39.85;;;22.48;;
63818;SDS011;49970;54.976;73.248;2023-05-10T05:43:19;52.63;;;21.42;;
63818;SDS011;49970;54.976;73.248;2023-05-10T05:45:45;48.67;;;21.00;;
63818;SDS011;49970;54.976;73.248;2023-05-10T05:48:12;40.20;;;21.55;;
63818;SDS011;49970;54.976;73.248;2023-05-10T05:50:38;32.33;;;19.02;;
63818;SDS011;49970;54.976;73.248;2023-05-10T05:53:04;40.08;;;18.48;;
63818;SDS011;49970;54.976;73.248;2023-05-10T05:55:31;36.83;;;18.52;;
63818;SDS011;49970;54.976;73.248;2023-05-10T05:57:58;37.28;;;18.38;;
63818;SDS011;49970;54.976;73.248;2023-05-10T06:00:24;55.80;;;20.17;;
63818;SDS011;49970;54.976;73.248;2023-05-10T06:02:51;38.47;;;19.02;;
63818;SDS011;49970;54.976;73.248;2023-05-10T06:05:17;54.05;;;19.45;;
63818;SDS011;49970;54.976;73.248;2023-05-10T06:07:43;40.33;;;19.05;;
63818;SDS011;49970;54.976;73.248;2023-05-10T06:10:10;38.05;;;18.67;;
63818;SDS011;49970;54.976;73.248;2023-05-10T06:12:36;42.13;;;20.13;;
63818;SDS011;49970;54.976;73.248;2023-05-10T06:15:03;30.15;;;19.35;;
63818;SDS011;49970;54.976;73.248;2023-05-10T06:17:29;33.88;;;18.95;;
63818;SDS011;49970;54.976;73.248;2023-05-10T06:19:55;32.50;;;18.48;;
63818;SDS011;49970;54.976;73.248;2023-05-10T06:22:22;34.22;;;18.45;;
63818;SDS011;49970;54.976;73.248;2023-05-10T06:24:48;30.13;;;19.33;;
63818;SDS011;49970;54.976;73.248;2023-05-10T06:27:15;28.60;;;18.73;;
63818;SDS011;49970;54.976;73.248;2023-05-10T06:29:41;47.88;;;18.88;;
63818;SDS011;49970;54.976;73.248;2023-05-10T06:32:07;36.20;;;18.20;;
63818;SDS011;49970;54.976;73.248;2023-05-10T06:34:34;32.55;;;18.98;;
63818;SDS011;49970;54.976;73.248;2023-05-10T06:37:00;28.02;;;18.85;;
63818;SDS011;49970;54.976;73.248;2023-05-10T06:39:29;42.83;;;18.88;;
63818;SDS011;49970;54.976;73.248;2023-05-10T06:41:55;40.70;;;19.55;;
63818;SDS011;49970;54.976;73.248;2023-05-10T06:44:22;32.20;;;16.98;;
63818;SDS011;49970;54.976;73.248;2023-05-10T06:46:48;29.35;;;16.35;;
63818;SDS011;49970;54.976;73.248;2023-05-10T06:49:16;53.58;;;18.05;;
63818;SDS011;49970;54.976;73.248;2023-05-10T06:51:42;33.10;;;16.95;;
63818;SDS011;49970;54.976;73.248;2023-05-10T06:54:08;29.10;;;17.83;;
63818;SDS011;49970;54.976;73.248;2023-05-10T06:56:34;31.75;;;17.63;;
63818;SDS011;49970;54.976;73.248;2023-05-10T06:59:01;38.00;;;17.25;;
63818;SDS011;49970;54.976;73.248;2023-05-10T07:01:29;35.00;;;16.75;;
63818;SDS011;49970;54.976;73.248;2023-05-10T07:03:55;54.83;;;18.35;;
63818;SDS011;49970;54.976;73.248;2023-05-10T07:06:22;38.60;;;18.83;;
63818;SDS011;49970;54.976;73.248;2023-05-10T07:08:48;35.85;;;18.58;;
63818;SDS011;49970;54.976;73.248;2023-05-10T07:11:14;31.85;;;17.55;;
63818;SDS011;49970;54.976;73.248;2023-05-10T07:13:40;30.08;;;17.67;;
63818;SDS011;49970;54.976;73.248;2023-05-10T07:16:09;54.00;;;17.65;;
63818;SDS011;49970;54.976;73.248;2023-05-10T07:18:36;31.58;;;16.55;;
63818;SDS011;49970;54.976;73.248;2023-05-10T07:21:02;32.78;;;16.40;;
63818;SDS011;49970;54.976;73.248;2023-05-10T07:23:28;34.72;;;17.10;;
63818;SDS011;49970;54.976;73.248;2023-05-10T07:25:55;49.63;;;16.50;;
63818;SDS011;49970;54.976;73.248;2023-05-10T07:28:23;33.90;;;18.20;;
63818;SDS011;49970;54.976;73.248;2023-05-10T07:30:53;35.88;;;17.02;;
63818;SDS011;49970;54.976;73.248;2023-05-10T07:33:20;49.40;;;17.08;;
63818;SDS011;49970;54.976;73.248;2023-05-10T07:35:46;58.47;;;18.35;;
63818;SDS011;49970;54.976;73.248;2023-05-10T07:38:12;30.85;;;17.45;;
63818;SDS011;49970;54.976;73.248;2023-05-10T07:40:39;46.33;;;18.38;;
63818;SDS011;49970;54.976;73.248;2023-05-10T07:43:05;40.22;;;17.77;;
63818;SDS011;49970;54.976;73.248;2023-05-10T07:45:32;52.28;;;17.52;;
63818;SDS011;49970;54.976;73.248;2023-05-10T07:47:59;33.67;;;17.42;;
63818;SDS011;49970;54.976;73.248;2023-05-10T07:50:25;37.47;;;17.40;;
63818;SDS011;49970;54.976;73.248;2023-05-10T07:52:52;47.25;;;19.40;;
63818;SDS011;49970;54.976;73.248;2023-05-10T07:55:18;41.47;;;17.80;;
63818;SDS011;49970;54.976;73.248;2023-05-10T07:59:07;27.65;;;17.63;;
63818;SDS011;49970;54.976;73.248;2023-05-10T08:03:23;33.13;;;16.48;;
63818;SDS011;49970;54.976;73.248;2023-05-10T08:05:49;30.05;;;15.90;;
63818;SDS011;49970;54.976;73.248;2023-05-10T08:08:16;37.92;;;16.52;;
63818;SDS011;49970;54.976;73.248;2023-05-10T08:10:42;33.50;;;15.95;;
63818;SDS011;49970;54.976;73.248;2023-05-10T08:13:08;35.00;;;16.17;;
63818;SDS011;49970;54.976;73.248;2023-05-10T08:15:34;35.97;;;15.38;;
63818;SDS011;49970;54.976;73.248;2023-05-10T08:18:00;39.55;;;16.35;;
63818;SDS011;49970;54.976;73.248;2023-05-10T08:20:27;25.67;;;15.23;;
63818;SDS011;49970;54.976;73.248;2023-05-10T08:22:53;66.57;;;28.60;;
63818;SDS011;49970;54.976;73.248;2023-05-10T08:25:19;57.47;;;27.50;;
63818;SDS011;49970;54.976;73.248;2023-05-10T08:27:46;40.50;;;16.83;;
63818;SDS011;49970;54.976;73.248;2023-05-10T08:30:12;32.95;;;15.25;;
63818;SDS011;49970;54.976;73.248;2023-05-10T08:32:38;35.85;;;16.00;;
63818;SDS011;49970;54.976;73.248;2023-05-10T08:35:05;31.60;;;15.82;;
63818;SDS011;49970;54.976;73.248;2023-05-10T08:37:31;33.88;;;15.80;;
63818;SDS011;49970;54.976;73.248;2023-05-10T08:40:05;36.45;;;15.20;;
63818;SDS011;49970;54.976;73.248;2023-05-10T08:43:06;24.23;;;15.38;;
63818;SDS011;49970;54.976;73.248;2023-05-10T08:45:40;49.80;;;16.02;;
63818;SDS011;49970;54.976;73.248;2023-05-10T08:48:09;31.75;;;15.07;;
63818;SDS011;49970;54.976;73.248;2023-05-10T08:50:39;35.45;;;14.55;;
63818;SDS011;49970;54.976;73.248;2023-05-10T08:53:10;26.67;;;14.50;;
63818;SDS011;49970;54.976;73.248;2023-05-10T08:55:39;46.55;;;15.93;;
63818;SDS011;49970;54.976;73.248;2023-05-10T08:58:12;40.10;;;15.43;;
63818;SDS011;49970;54.976;73.248;2023-05-10T09:00:40;39.88;;;14.95;;
63818;SDS011;49970;54.976;73.248;2023-05-10T09:03:09;35.33;;;15.30;;
63818;SDS011;49970;54.976;73.248;2023-05-10T09:05:41;37.50;;;15.00;;
63818;SDS011;49970;54.976;73.248;2023-05-10T09:08:12;33.08;;;15.15;;
63818;SDS011;49970;54.976;73.248;2023-05-10T09:10:42;37.08;;;13.95;;
63818;SDS011;49970;54.976;73.248;2023-05-10T09:13:14;34.50;;;13.95;;
63818;SDS011;49970;54.976;73.248;2023-05-10T09:15:48;43.45;;;14.27;;
63818;SDS011;49970;54.976;73.248;2023-05-10T09:18:19;49.50;;;14.00;;
63818;SDS011;49970;54.976;73.248;2023-05-10T09:20:49;35.88;;;13.43;;
63818;SDS011;49970;54.976;73.248;2023-05-10T09:23:21;38.00;;;14.52;;
63818;SDS011;49970;54.976;73.248;2023-05-10T09:26:04;37.13;;;13.27;;
63818;SDS011;49970;54.976;73.248;2023-05-10T09:28:33;35.33;;;13.85;;
63818;SDS011;49970;54.976;73.248;2023-05-10T09:31:16;30.40;;;12.90;;
63818;SDS011;49970;54.976;73.248;2023-05-10T09:33:49;33.65;;;12.35;;
63818;SDS011;49970;54.976;73.248;2023-05-10T09:36:18;36.40;;;12.68;;
63818;SDS011;49970;54.976;73.248;2023-05-10T09:38:50;27.38;;;11.98;;
63818;SDS011;49970;54.976;73.248;2023-05-10T09:41:23;23.27;;;12.85;;
63818;SDS011;49970;54.976;73.248;2023-05-10T09:43:55;28.88;;;11.15;;
63818;SDS011;49970;54.976;73.248;2023-05-10T09:46:24;23.20;;;11.70;;
63818;SDS011;49970;54.976;73.248;2023-05-10T09:48:54;26.70;;;11.48;;
63818;SDS011;49970;54.976;73.248;2023-05-10T09:51:24;25.67;;;11.45;;
63818;SDS011;49970;54.976;73.248;2023-05-10T09:54:11;31.95;;;12.43;;
63818;SDS011;49970;54.976;73.248;2023-05-10T09:56:42;22.50;;;10.95;;
63818;SDS011;49970;54.976;73.248;2023-05-10T09:59:12;32.30;;;13.23;;
63818;SDS011;49970;54.976;73.248;2023-05-10T10:01:41;29.85;;;12.38;;
63818;SDS011;49970;54.976;73.248;2023-05-10T10:04:17;25.40;;;12.05;;
63818;SDS011;49970;54.976;73.248;2023-05-10T10:07:07;21.80;;;12.35;;
63818;SDS011;49970;54.976;73.248;2023-05-10T10:09:37;39.88;;;12.15;;
63818;SDS011;49970;54.976;73.248;2023-05-10T10:12:05;19.90;;;11.13;;
63818;SDS011;49970;54.976;73.248;2023-05-10T10:14:36;32.72;;;11.15;;
63818;SDS011;49970;54.976;73.248;2023-05-10T10:17:07;36.70;;;10.23;;
63818;SDS011;49970;54.976;73.248;2023-05-10T10:19:36;18.52;;;11.73;;
63818;SDS011;49970;54.976;73.248;2023-05-10T10:22:05;41.63;;;11.27;;
63818;SDS011;49970;54.976;73.248;2023-05-10T10:24:38;55.50;;;10.07;;
63818;SDS011;49970;54.976;73.248;2023-05-10T10:27:12;50.28;;;11.43;;
63818;SDS011;49970;54.976;73.248;2023-05-10T10:30:07;31.85;;;9.60;;
63818;SDS011;49970;54.976;73.248;2023-05-10T10:35:39;23.33;;;9.13;;
63818;SDS011;49970;54.976;73.248;2023-05-10T10:38:12;27.10;;;8.98;;
63818;SDS011;49970;54.976;73.248;2023-05-10T10:40:41;21.38;;;8.93;;
63818;SDS011;49970;54.976;73.248;2023-05-10T10:43:44;27.40;;;9.35;;
63818;SDS011;49970;54.976;73.248;2023-05-10T10:48:47;32.58;;;9.82;;
63818;SDS011;49970;54.976;73.248;2023-05-10T10:52:41;17.58;;;9.23;;
63818;SDS011;49970;54.976;73.248;2023-05-10T10:56:10;51.60;;;11.25;;
63818;SDS011;49970;54.976;73.248;2023-05-10T10:58:39;27.50;;;8.45;;
63818;SDS011;49970;54.976;73.248;2023-05-10T11:01:16;27.65;;;8.55;;
63818;SDS011;49970;54.976;73.248;2023-05-10T11:06:32;23.48;;;8.50;;
63818;SDS011;49970;54.976;73.248;2023-05-10T11:09:00;30.00;;;7.93;;
63818;SDS011;49970;54.976;73.248;2023-05-10T11:11:33;22.48;;;8.95;;
63818;SDS011;49970;54.976;73.248;2023-05-10T11:14:04;18.17;;;9.02;;
63818;SDS011;49970;54.976;73.248;2023-05-10T11:16:41;22.88;;;8.18;;
63818;SDS011;49970;54.976;73.248;2023-05-10T11:19:12;37.88;;;8.35;;
63818;SDS011;49970;54.976;73.248;2023-05-10T11:21:50;28.70;;;8.30;;
63818;SDS011;49970;54.976;73.248;2023-05-10T11:24:20;21.42;;;8.10;;
63818;SDS011;49970;54.976;73.248;2023-05-10T11:26:51;24.45;;;8.05;;
63818;SDS011;49970;54.976;73.248;2023-05-10T11:29:17;36.25;;;7.68;;
63818;SDS011;49970;54.976;73.248;2023-05-10T11:31:44;14.27;;;7.90;;
63818;SDS011;49970;54.976;73.248;2023-05-10T11:34:22;31.77;;;8.40;;
63818;SDS011;49970;54.976;73.248;2023-05-10T11:36:54;17.63;;;7.03;;
63818;SDS011;49970;54.976;73.248;2023-05-10T11:39:21;36.67;;;8.20;;
63818;SDS011;49970;54.976;73.248;2023-05-10T11:41:52;26.83;;;7.75;;
63818;SDS011;49970;54.976;73.248;2023-05-10T11:44:18;37.75;;;8.93;;
63818;SDS011;49970;54.976;73.248;2023-05-10T11:46:44;112.68;;;55.55;;
63818;SDS011;49970;54.976;73.248;2023-05-10T11:49:10;26.40;;;7.97;;
63818;SDS011;49970;54.976;73.248;2023-05-10T11:51:40;14.30;;;9.60;;
63818;SDS011;49970;54.976;73.248;2023-05-10T11:54:09;20.27;;;8.07;;
63818;SDS011;49970;54.976;73.248;2023-05-10T11:56:37;17.83;;;6.75;;
63818;SDS011;49970;54.976;73.248;2023-05-10T11:59:04;46.38;;;8.32;;
63818;SDS011;49970;54.976;73.248;2023-05-10T12:01:31;32.08;;;8.02;;
63818;SDS011;49970;54.976;73.248;2023-05-10T12:03:58;19.98;;;7.13;;
63818;SDS011;49970;54.976;73.248;2023-05-10T12:06:30;29.88;;;7.43;;
63818;SDS011;49970;54.976;73.248;2023-05-10T12:08:57;34.90;;;7.57;;
63818;SDS011;49970;54.976;73.248;2023-05-10T12:11:26;59.17;;;8.30;;
63818;SDS011;49970;54.976;73.248;2023-05-10T12:13:54;31.08;;;7.10;;
63818;SDS011;49970;54.976;73.248;2023-05-10T12:16:23;34.33;;;7.38;;
63818;SDS011;49970;54.976;73.248;2023-05-10T12:18:51;22.70;;;7.43;;
63818;SDS011;49970;54.976;73.248;2023-05-10T12:21:22;27.75;;;7.40;;
63818;SDS011;49970;54.976;73.248;2023-05-10T12:23:52;19.33;;;6.63;;
63818;SDS011;49970;54.976;73.248;2023-05-10T12:27:41;16.65;;;6.38;;
63818;SDS011;49970;54.976;73.248;2023-05-10T12:35:30;15.95;;;6.90;;
63818;SDS011;49970;54.976;73.248;2023-05-10T12:39:21;30.95;;;8.38;;
63818;SDS011;49970;54.976;73.248;2023-05-10T12:43:37;21.58;;;6.72;;
63818;SDS011;49970;54.976;73.248;2023-05-10T12:47:28;26.70;;;7.07;;
63818;SDS011;49970;54.976;73.248;2023-05-10T12:51:44;42.40;;;18.33;;
63818;SDS011;49970;54.976;73.248;2023-05-10T12:55:35;43.28;;;12.55;;
63818;SDS011;49970;54.976;73.248;2023-05-10T12:59:28;25.35;;;7.85;;
63818;SDS011;49970;54.976;73.248;2023-05-10T13:07:16;24.88;;;7.35;;
63818;SDS011;49970;54.976;73.248;2023-05-10T13:11:07;30.35;;;8.68;;
63818;SDS011;49970;54.976;73.248;2023-05-10T13:15:23;40.25;;;10.05;;
63818;SDS011;49970;54.976;73.248;2023-05-10T13:19:15;29.77;;;10.45;;
63818;SDS011;49970;54.976;73.248;2023-05-10T13:23:30;31.98;;;9.95;;
63818;SDS011;49970;54.976;73.248;2023-05-10T13:27:21;25.98;;;8.23;;
63818;SDS011;49970;54.976;73.248;2023-05-10T13:31:12;16.55;;;8.60;;
63818;SDS011;49970;54.976;73.248;2023-05-10T13:35:28;39.28;;;9.88;;
63818;SDS011;49970;54.976;73.248;2023-05-10T13:39:20;42.85;;;10.65;;
63818;SDS011;49970;54.976;73.248;2023-05-10T13:43:10;24.70;;;9.38;;
63818;SDS011;49970;54.976;73.248;2023-05-10T13:47:26;46.88;;;9.30;;
63818;SDS011;49970;54.976;73.248;2023-05-10T13:51:17;77.07;;;11.85;;
63818;SDS011;49970;54.976;73.248;2023-05-10T13:53:44;59.50;;;10.10;;
63818;SDS011;49970;54.976;73.248;2023-05-10T13:56:10;70.85;;;11.95;;
63818;SDS011;49970;54.976;73.248;2023-05-10T13:58:37;136.63;;;12.57;;
63818;SDS011;49970;54.976;73.248;2023-05-10T14:01:04;110.82;;;11.15;;
63818;SDS011;49970;54.976;73.248;2023-05-10T14:03:30;101.35;;;12.00;;
63818;SDS011;49970;54.976;73.248;2023-05-10T14:05:56;65.03;;;10.30;;
63818;SDS011;49970;54.976;73.248;2023-05-10T14:08:22;85.72;;;11.18;;
63818;SDS011;49970;54.976;73.248;2023-05-10T14:10:49;87.97;;;9.73;;
63818;SDS011;49970;54.976;73.248;2023-05-10T14:13:16;85.38;;;10.02;;
63818;SDS011;49970;54.976;73.248;2023-05-10T14:15:42;59.17;;;9.27;;
63818;SDS011;49970;54.976;73.248;2023-05-10T14:18:08;56.72;;;10.18;;
63818;SDS011;49970;54.976;73.248;2023-05-10T14:20:34;46.78;;;8.85;;
63818;SDS011;49970;54.976;73.248;2023-05-10T14:23:01;64.57;;;9.43;;
63818;SDS011;49970;54.976;73.248;2023-05-10T14:25:27;55.67;;;8.43;;
63818;SDS011;49970;54.976;73.248;2023-05-10T14:27:53;74.60;;;9.43;;
63818;SDS011;49970;54.976;73.248;2023-05-10T14:30:20;63.90;;;8.45;;
63818;SDS011;49970;54.976;73.248;2023-05-10T14:32:46;53.30;;;9.32;;
63818;SDS011;49970;54.976;73.248;2023-05-10T14:35:13;58.50;;;9.32;;
63818;SDS011;49970;54.976;73.248;2023-05-10T14:37:42;47.55;;;8.40;;
63818;SDS011;49970;54.976;73.248;2023-05-10T14:40:08;54.78;;;8.38;;
63818;SDS011;49970;54.976;73.248;2023-05-10T14:42:35;42.42;;;8.07;;
63818;SDS011;49970;54.976;73.248;2023-05-10T14:45:01;46.92;;;7.88;;
63818;SDS011;49970;54.976;73.248;2023-05-10T14:47:28;45.92;;;8.48;;
63818;SDS011;49970;54.976;73.248;2023-05-10T14:49:54;25.70;;;8.18;;
63818;SDS011;49970;54.976;73.248;2023-05-10T14:52:20;66.57;;;8.30;;
63818;SDS011;49970;54.976;73.248;2023-05-10T14:54:48;46.28;;;8.00;;
63818;SDS011;49970;54.976;73.248;2023-05-10T14:57:15;30.65;;;8.18;;
63818;SDS011;49970;54.976;73.248;2023-05-10T14:59:41;53.92;;;8.38;;
63818;SDS011;49970;54.976;73.248;2023-05-10T15:02:08;45.13;;;7.93;;
63818;SDS011;49970;54.976;73.248;2023-05-10T15:04:35;82.38;;;17.25;;
63818;SDS011;49970;54.976;73.248;2023-05-10T15:07:01;97.25;;;25.52;;
63818;SDS011;49970;54.976;73.248;2023-05-10T15:09:27;134.30;;;44.17;;
63818;SDS011;49970;54.976;73.248;2023-05-10T15:11:54;76.07;;;22.35;;
63818;SDS011;49970;54.976;73.248;2023-05-10T15:14:21;71.50;;;19.77;;
63818;SDS011;49970;54.976;73.248;2023-05-10T15:16:48;68.53;;;18.33;;
63818;SDS011;49970;54.976;73.248;2023-05-10T15:19:14;61.22;;;16.92;;
63818;SDS011;49970;54.976;73.248;2023-05-10T15:21:40;61.67;;;19.27;;
63818;SDS011;49970;54.976;73.248;2023-05-10T15:24:09;73.90;;;20.13;;
63818;SDS011;49970;54.976;73.248;2023-05-10T15:26:35;74.93;;;15.02;;